Time;durP1;ratioP1;P1;durP2;ratioP2;P2;SDS_P1;SDS_P2;PMS_P1;PMS_P2;Temp;Humidity;BMP_temperature;BMP_pressure;BME280_temperature;BME280_humidity;BME280_pressure;Samples;Min_cycle;Max_cycle;Signal;HPM_P1;HPM_P2
2021/12/25 00:00:34;;;;;;;13.70;9.83;;;1.70;99.90;;;;;;5034496;28;20556;-58
2021/12/25 00:03:01;;;;;;;14.47;10.80;;;1.90;99.90;;;;;;5030223;28;20446;-57
2021/12/25 00:05:30;;;;;;;12.60;9.97;;;2.00;99.90;;;;;;5034773;28;20490;-59
2021/12/25 00:07:57;;;;;;;12.97;9.70;;;2.10;99.90;;;;;;5039269;28;21068;-61
2021/12/25 00:10:23;;;;;;;10.63;9.23;;;2.30;99.90;;;;;;5027998;28;20541;-58
2021/12/25 00:12:53;;;;;;;9.33;7.43;;;2.40;99.90;;;;;;5032231;28;20525;-58
2021/12/25 00:15:20;;;;;;;11.30;9.37;;;2.40;99.90;;;;;;5037336;28;20877;-59
2021/12/25 00:17:47;;;;;;;7.87;7.07;;;2.50;99.90;;;;;;5029897;28;20988;-58
2021/12/25 00:20:14;;;;;;;11.27;9.77;;;2.60;99.90;;;;;;5029832;28;20485;-57
2021/12/25 00:22:43;;;;;;;8.47;7.57;;;2.70;99.90;;;;;;5038201;28;20504;-58
2021/12/25 00:25:10;;;;;;;9.33;8.43;;;2.80;99.90;;;;;;5031037;28;20802;-58
2021/12/25 00:27:46;;;;;;;10.00;8.20;;;2.90;99.90;;;;;;5030329;28;20503;-56
2021/12/25 00:30:20;;;;;;;8.67;7.60;;;2.90;99.90;;;;;;5030563;28;20474;-62
2021/12/25 00:32:54;;;;;;;12.17;8.53;;;2.80;99.90;;;;;;5031985;28;20456;-58
2021/12/25 00:35:21;;;;;;;12.70;9.10;;;2.90;99.90;;;;;;5030353;28;20454;-61
2021/12/25 00:37:49;;;;;;;12.13;8.60;;;2.90;99.90;;;;;;5032171;28;20473;-64
2021/12/25 00:40:17;;;;;;;17.93;9.80;;;2.70;99.90;;;;;;5033126;28;20532;-56
2021/12/25 00:42:44;;;;;;;10.50;9.40;;;2.70;99.90;;;;;;5032010;28;20442;-57
2021/12/25 00:45:11;;;;;;;10.30;9.30;;;2.70;99.90;;;;;;5030633;28;20561;-59
2021/12/25 00:47:38;;;;;;;10.27;9.20;;;2.70;99.90;;;;;;5030032;28;20612;-56
2021/12/25 00:50:07;;;;;;;10.33;9.20;;;2.40;99.90;;;;;;5031814;28;20478;-57
2021/12/25 00:52:34;;;;;;;18.90;11.77;;;1.90;99.90;;;;;;5030450;28;20484;-58
2021/12/25 00:55:04;;;;;;;27.80;15.70;;;1.80;99.90;;;;;;5031168;28;20466;-57
2021/12/25 00:57:31;;;;;;;15.63;10.33;;;1.80;99.90;;;;;;5033807;28;20919;-59
2021/12/25 00:59:58;;;;;;;7.97;7.17;;;1.80;99.90;;;;;;5034246;28;21021;-58
2021/12/25 01:02:26;;;;;;;18.30;11.73;;;1.70;99.90;;;;;;5030495;28;20580;-56
2021/12/25 01:04:52;;;;;;;9.03;6.80;;;1.70;99.90;;;;;;5042735;28;20465;-58
2021/12/25 01:07:19;;;;;;;7.40;6.20;;;1.80;99.90;;;;;;5035122;28;20569;-57
2021/12/25 01:09:46;;;;;;;11.77;8.90;;;1.90;99.90;;;;;;5032583;28;20544;-57
2021/12/25 01:12:15;;;;;;;11.43;10.07;;;2.00;99.90;;;;;;5034613;28;20469;-57
2021/12/25 01:14:47;;;;;;;10.47;9.30;;;2.10;99.90;;;;;;5033389;28;20466;-56
2021/12/25 01:20:24;;;;;;;8.97;8.07;;;2.20;99.90;;;;;;5027143;28;20438;-56
2021/12/25 01:31:42;;;;;;;5.53;5.03;;;1.80;99.90;;;;;;5145116;27;20594;-59
2021/12/25 01:34:34;;;;;;;10.83;8.27;;;1.90;99.90;;;;;;5138823;27;20460;-57
2021/12/25 01:37:08;;;;;;;10.33;9.30;;;2.00;99.90;;;;;;5144596;27;20440;-57
2021/12/25 01:39:52;;;;;;;10.73;9.67;;;2.00;99.90;;;;;;5148489;27;20437;-58
2021/12/25 01:47:51;;;;;;;7.93;7.13;;;1.60;99.90;;;;;;5085699;28;20445;-50
2021/12/25 01:50:19;;;;;;;9.33;7.90;;;1.50;99.90;;;;;;5095043;28;20894;-50
2021/12/25 01:52:47;;;;;;;8.70;7.80;;;1.70;99.90;;;;;;5084342;28;20557;-51
2021/12/25 01:55:18;;;;;;;7.90;7.13;;;1.80;99.90;;;;;;5069376;28;20473;-52
2021/12/25 01:57:45;;;;;;;7.50;6.80;;;1.80;99.90;;;;;;5082177;28;20445;-51
2021/12/25 02:00:18;;;;;;;8.20;6.07;;;1.90;99.90;;;;;;5075507;28;20531;-52
2021/12/25 02:02:46;;;;;;;8.30;6.80;;;1.90;99.90;;;;;;5069867;28;20543;-50
2021/12/25 02:05:15;;;;;;;7.90;7.10;;;2.00;99.90;;;;;;5072101;28;20529;-51
2021/12/25 02:07:42;;;;;;;6.90;6.20;;;2.00;99.90;;;;;;5076924;28;20530;-51
2021/12/25 02:10:11;;;;;;;6.50;5.90;;;2.10;99.90;;;;;;5063663;28;20560;-51
2021/12/25 02:12:38;;;;;;;8.30;7.40;;;2.10;99.90;;;;;;5075332;28;21071;-52
2021/12/25 02:15:14;;;;;;;8.90;6.73;;;1.80;99.90;;;;;;5066973;28;20521;-51
2021/12/25 02:18:03;;;;;;;6.93;6.23;;;1.70;99.90;;;;;;5069471;28;20482;-53
2021/12/25 02:20:38;;;;;;;7.40;6.70;;;1.80;99.90;;;;;;5072063;28;20526;-51
2021/12/25 02:23:11;;;;;;;8.27;7.10;;;1.80;99.90;;;;;;5070995;28;20973;-51
2021/12/25 02:25:39;;;;;;;7.57;6.77;;;1.70;99.90;;;;;;5066527;28;20464;-51
2021/12/25 02:28:06;;;;;;;7.23;6.50;;;1.80;99.90;;;;;;5080689;28;20444;-50
2021/12/25 02:30:33;;;;;;;7.30;5.80;;;1.80;99.90;;;;;;5074458;28;20574;-49
2021/12/25 02:33:00;;;;;;;5.43;4.93;;;1.80;99.90;;;;;;5068911;28;20910;-51
2021/12/25 02:35:29;;;;;;;6.50;5.37;;;1.50;99.90;;;;;;5076900;28;20483;-49
2021/12/25 02:37:58;;;;;;;3.90;3.60;;;1.50;99.90;;;;;;5061978;28;20443;-50
2021/12/25 02:40:25;;;;;;;5.50;4.00;;;1.50;99.90;;;;;;5070016;28;20495;-50
2021/12/25 02:42:52;;;;;;;3.37;3.07;;;1.60;99.90;;;;;;5044898;28;20540;-50
2021/12/25 02:45:20;;;;;;;4.83;4.33;;;1.60;99.90;;;;;;5057629;28;20877;-50
2021/12/25 02:47:49;;;;;;;7.60;6.90;;;1.70;99.90;;;;;;5057487;28;20484;-50
2021/12/25 02:50:23;;;;;;;8.53;7.23;;;1.90;99.90;;;;;;5049064;28;20556;-53
2021/12/25 02:52:50;;;;;;;8.40;7.50;;;1.80;99.90;;;;;;5048559;28;20462;-49
2021/12/25 02:55:19;;;;;;;10.37;7.70;;;1.70;99.90;;;;;;5055696;28;20996;-49
2021/12/25 02:57:50;;;;;;;8.70;6.87;;;1.80;99.90;;;;;;5059400;28;20540;-50
2021/12/25 03:00:17;;;;;;;7.27;6.57;;;1.80;99.90;;;;;;5050475;28;20448;-50
2021/12/25 03:02:44;;;;;;;7.60;6.37;;;1.80;99.90;;;;;;5058278;28;20970;-49
2021/12/25 03:05:12;;;;;;;8.10;6.97;;;1.80;99.90;;;;;;5059372;28;20467;-49
2021/12/25 03:07:39;;;;;;;8.73;6.97;;;1.50;99.90;;;;;;5051948;28;20479;-50
2021/12/25 03:10:07;;;;;;;4.73;4.30;;;1.60;99.90;;;;;;5056064;28;21617;-52
2021/12/25 03:12:47;;;;;;;3.53;3.23;;;1.60;99.90;;;;;;5051250;28;20494;-51
2021/12/25 03:15:17;;;;;;;2.97;2.50;;;1.20;99.90;;;;;;5048639;28;20840;-50
2021/12/25 03:17:46;;;;;;;8.50;4.87;;;1.40;99.90;;;;;;5057529;28;20549;-49
2021/12/25 03:20:13;;;;;;;8.00;6.53;;;1.50;99.90;;;;;;5062009;28;20515;-52
2021/12/25 03:22:41;;;;;;;5.47;4.97;;;1.60;99.90;;;;;;5050666;28;20506;-49
2021/12/25 03:25:09;;;;;;;4.67;4.27;;;1.80;99.90;;;;;;5057116;28;20523;-50
2021/12/25 03:27:37;;;;;;;5.30;4.10;;;1.80;99.90;;;;;;5061834;28;20526;-50
2021/12/25 03:30:06;;;;;;;3.80;2.70;;;1.90;99.90;;;;;;5053386;28;20532;-49
2021/12/25 03:32:33;;;;;;;4.70;3.40;;;1.60;99.90;;;;;;5052911;28;20509;-49
2021/12/25 03:35:00;;;;;;;5.40;2.80;;;1.50;99.90;;;;;;5065544;28;20473;-49
2021/12/25 03:37:27;;;;;;;4.10;3.03;;;1.60;99.90;;;;;;5051461;28;20891;-49
2021/12/25 03:39:54;;;;;;;6.63;2.70;;;1.70;99.90;;;;;;5057862;28;20456;-53
2021/12/25 03:42:21;;;;;;;3.97;2.63;;;1.70;99.90;;;;;;5036855;28;20508;-49
2021/12/25 03:44:50;;;;;;;5.07;4.57;;;1.70;99.90;;;;;;5053753;28;20531;-50
2021/12/25 03:47:26;;;;;;;4.40;3.60;;;1.60;99.90;;;;;;5058225;28;20450;-50
2021/12/25 03:58:11;;;;;;;4.73;3.50;;;1.50;99.90;;;;;;5060797;28;20967;-49
2021/12/25 04:00:41;;;;;;;10.90;6.30;;;1.50;99.90;;;;;;5050814;28;20437;-50
2021/12/25 04:03:16;;;;;;;8.73;5.97;;;1.30;99.90;;;;;;5051590;28;20473;-49
2021/12/25 04:05:45;;;;;;;9.80;6.20;;;1.40;99.90;;;;;;5065785;28;20471;-52
2021/12/25 04:08:15;;;;;;;9.20;4.43;;;1.30;99.90;;;;;;5059793;28;20858;-47
2021/12/25 04:10:44;;;;;;;7.00;4.63;;;1.40;99.90;;;;;;5050828;28;20483;-52
2021/12/25 04:13:13;;;;;;;4.93;3.70;;;1.40;99.90;;;;;;5058374;28;20571;-49
2021/12/25 04:15:43;;;;;;;2.70;2.00;;;1.50;99.90;;;;;;5044695;28;20532;-50
2021/12/25 04:18:10;;;;;;;6.30;3.07;;;1.40;99.90;;;;;;5049183;28;20533;-50
2021/12/25 04:20:38;;;;;;;6.07;5.47;;;1.40;99.90;;;;;;5048932;28;20527;-48
2021/12/25 04:23:09;;;;;;;13.40;8.10;;;1.40;99.90;;;;;;5048841;28;20899;-49
2021/12/25 04:25:37;;;;;;;7.63;4.83;;;1.40;99.90;;;;;;5049347;28;20448;-49
2021/12/25 04:28:12;;;;;;;4.93;3.50;;;1.40;99.90;;;;;;5053367;28;20495;-50
2021/12/25 04:30:58;;;;;;;5.40;3.87;;;1.30;99.90;;;;;;5051804;28;20530;-50
2021/12/25 05:03:48;;;;;;;1.33;1.23;;;1.30;99.90;;;;;;5050822;28;20470;-50
2021/12/25 05:06:17;;;;;;;5.00;1.20;;;1.40;99.90;;;;;;5044656;28;20452;-52
2021/12/25 05:08:44;;;;;;;5.70;4.77;;;1.50;99.90;;;;;;5048032;28;20944;-49
2021/12/25 05:11:11;;;;;;;7.67;5.20;;;1.50;99.90;;;;;;5047529;28;20572;-49
2021/12/25 05:13:38;;;;;;;5.90;4.33;;;1.50;99.90;;;;;;5066656;28;20543;-49
2021/12/25 05:16:05;;;;;;;4.60;2.77;;;1.50;99.90;;;;;;5054371;28;20547;-50
2021/12/25 05:18:33;;;;;;;1.83;1.73;;;1.50;99.90;;;;;;5051679;28;20484;-49
2021/12/25 05:20:59;;;;;;;1.23;1.10;;;1.40;99.90;;;;;;5044098;28;20450;-51
2021/12/25 05:23:28;;;;;;;1.70;0.97;;;1.30;99.90;;;;;;5049706;28;20563;-49
2021/12/25 05:25:55;;;;;;;1.97;1.83;;;1.40;99.90;;;;;;5049386;28;20528;-49
2021/12/25 05:28:26;;;;;;;4.97;3.00;;;1.60;99.90;;;;;;5055597;28;20551;-48
2021/12/25 05:30:54;;;;;;;2.27;2.07;;;1.40;99.90;;;;;;5052565;28;20480;-50
2021/12/25 05:33:22;;;;;;;3.10;2.80;;;1.50;99.90;;;;;;5054524;28;20538;-51
2021/12/25 05:35:49;;;;;;;4.13;2.47;;;1.50;99.90;;;;;;5052515;28;20543;-49
2021/12/25 05:38:16;;;;;;;3.23;2.00;;;1.60;99.90;;;;;;5047450;28;20531;-49
2021/12/25 05:40:46;;;;;;;2.83;1.47;;;1.70;99.90;;;;;;5028581;28;20536;-51
2021/12/25 05:43:14;;;;;;;2.27;0.90;;;1.80;99.90;;;;;;5023986;28;20573;-50
2021/12/25 05:45:41;;;;;;;1.60;1.40;;;2.00;99.90;;;;;;5023131;28;20564;-47
2021/12/25 05:48:08;;;;;;;2.70;2.13;;;1.90;99.90;;;;;;5023426;28;20540;-52
2021/12/25 05:50:36;;;;;;;2.33;1.87;;;1.40;99.90;;;;;;5026350;28;20568;-53
2021/12/25 05:53:03;;;;;;;2.00;1.10;;;1.30;99.90;;;;;;5023085;28;20473;-50
2021/12/25 05:55:30;;;;;;;1.50;1.40;;;1.60;99.90;;;;;;5025587;28;21064;-47
2021/12/25 05:57:58;;;;;;;2.40;1.50;;;1.70;99.90;;;;;;5025239;28;20528;-49
2021/12/25 06:00:26;;;;;;;3.50;3.20;;;1.70;99.90;;;;;;5024646;28;20456;-47
2021/12/25 06:02:53;;;;;;;3.57;2.00;;;1.40;99.90;;;;;;5022671;28;20575;-47
2021/12/25 06:05:20;;;;;;;2.63;1.87;;;1.20;99.90;;;;;;5025213;28;21015;-47
2021/12/25 06:07:47;;;;;;;1.70;1.47;;;1.30;99.90;;;;;;5024356;28;20536;-54
2021/12/25 06:10:14;;;;;;;5.00;4.50;;;1.30;99.90;;;;;;5025718;28;20532;-46
2021/12/25 06:12:43;;;;;;;5.33;4.70;;;1.50;99.90;;;;;;5024233;28;20497;-50
2021/12/25 06:15:13;;;;;;;5.43;3.40;;;1.50;99.90;;;;;;5024718;28;22625;-47
2021/12/25 06:17:41;;;;;;;6.10;4.10;;;1.50;99.90;;;;;;5026226;28;20455;-46
2021/12/25 06:20:09;;;;;;;2.63;2.23;;;1.50;99.90;;;;;;5029655;28;20857;-48
2021/12/25 06:22:36;;;;;;;3.77;2.43;;;1.40;99.90;;;;;;5027160;28;20555;-50
2021/12/25 06:25:04;;;;;;;2.13;1.93;;;1.30;99.90;;;;;;5029229;28;20548;-53
2021/12/25 06:27:31;;;;;;;5.23;3.03;;;1.40;99.90;;;;;;5026965;28;20532;-52
2021/12/25 06:29:58;;;;;;;5.33;4.37;;;1.50;99.90;;;;;;5028322;28;20554;-48
2021/12/25 06:32:26;;;;;;;2.90;2.40;;;1.40;99.90;;;;;;5028577;28;20498;-47
2021/12/25 06:34:53;;;;;;;5.03;2.47;;;1.40;99.90;;;;;;5027823;28;20440;-47
2021/12/25 06:37:20;;;;;;;5.60;2.80;;;1.40;99.90;;;;;;5027333;28;20437;-51
2021/12/25 06:39:48;;;;;;;3.33;3.00;;;1.40;99.90;;;;;;5027719;28;20537;-54
2021/12/25 06:42:15;;;;;;;3.83;2.27;;;1.40;99.90;;;;;;5027467;28;20453;-51
2021/12/25 06:44:43;;;;;;;5.60;4.43;;;1.40;99.90;;;;;;5026728;28;20547;-51
2021/12/25 06:47:10;;;;;;;7.27;6.10;;;1.50;99.90;;;;;;5028201;28;20532;-48
2021/12/25 06:49:38;;;;;;;3.13;2.83;;;1.40;99.90;;;;;;5024939;28;20453;-49
2021/12/25 06:52:06;;;;;;;3.70;1.83;;;1.30;99.90;;;;;;5027455;28;21050;-47
2021/12/25 06:54:33;;;;;;;1.87;1.67;;;1.40;99.90;;;;;;5028577;28;20548;-50
2021/12/25 06:57:01;;;;;;;2.60;2.40;;;1.40;99.90;;;;;;5023985;28;20448;-50
2021/12/25 06:59:30;;;;;;;4.07;3.33;;;1.40;99.90;;;;;;5027757;28;20962;-46
2021/12/25 07:01:57;;;;;;;7.20;5.23;;;1.40;99.90;;;;;;5029063;28;20446;-49
2021/12/25 07:04:24;;;;;;;3.60;2.87;;;1.20;99.90;;;;;;5025457;28;20949;-52
2021/12/25 07:06:53;;;;;;;2.67;2.20;;;0.90;99.90;;;;;;5026551;28;20532;-49
2021/12/25 07:09:20;;;;;;;5.03;3.10;;;0.80;99.90;;;;;;5025619;28;20535;-47
2021/12/25 07:11:47;;;;;;;1.87;1.60;;;0.80;99.90;;;;;;5026306;28;20579;-46
2021/12/25 07:14:14;;;;;;;2.60;2.10;;;0.70;99.90;;;;;;5027642;28;20671;-50
2021/12/25 07:16:41;;;;;;;2.10;1.70;;;0.70;99.90;;;;;;5027487;28;20479;-49
2021/12/25 07:19:12;;;;;;;6.90;4.13;;;0.70;99.90;;;;;;5027884;28;20454;-51
2021/12/25 07:21:39;;;;;;;7.00;4.00;;;0.80;99.90;;;;;;5029626;28;20436;-48
2021/12/25 07:24:09;;;;;;;2.23;1.87;;;0.90;99.90;;;;;;5026524;28;20466;-49
2021/12/25 07:26:37;;;;;;;5.53;3.90;;;1.00;99.90;;;;;;5027328;28;20733;-48
2021/12/25 07:29:05;;;;;;;7.77;6.60;;;1.00;99.90;;;;;;5026018;28;20536;-48
2021/12/25 07:31:32;;;;;;;8.80;7.17;;;1.00;99.90;;;;;;5026610;28;21035;-48
2021/12/25 07:33:58;;;;;;;7.07;4.83;;;0.70;99.90;;;;;;5026413;28;20559;-47
2021/12/25 07:36:26;;;;;;;3.43;2.83;;;0.80;99.90;;;;;;5028620;28;20540;-50
2021/12/25 07:38:55;;;;;;;5.13;3.47;;;0.90;99.90;;;;;;5027362;28;20528;-46
2021/12/25 07:41:23;;;;;;;5.23;4.77;;;1.00;99.90;;;;;;5024986;28;20515;-49
2021/12/25 07:43:50;;;;;;;6.30;4.67;;;1.00;99.90;;;;;;5107853;22;20677;-54
2021/12/25 07:46:17;;;;;;;2.93;2.30;;;1.00;99.90;;;;;;5064432;28;20508;-54
2021/12/25 07:48:46;;;;;;;7.97;4.97;;;1.00;99.90;;;;;;5064036;28;20561;-54
2021/12/25 07:51:13;;;;;;;10.20;6.53;;;1.00;99.90;;;;;;5064138;28;21113;-54
2021/12/25 07:53:41;;;;;;;6.00;4.40;;;1.10;99.90;;;;;;5062502;28;20558;-55
2021/12/25 07:56:08;;;;;;;3.50;3.20;;;1.10;99.90;;;;;;5064247;28;20461;-56
2021/12/25 07:58:36;;;;;;;3.20;2.90;;;1.00;99.90;;;;;;5064288;28;20534;-55
2021/12/25 08:01:03;;;;;;;2.77;2.10;;;1.10;99.90;;;;;;5059760;28;20450;-54
2021/12/25 08:03:30;;;;;;;2.60;2.40;;;1.10;99.90;;;;;;5061561;28;20573;-55
2021/12/25 08:05:57;;;;;;;4.43;3.70;;;1.20;99.90;;;;;;5062299;28;20542;-54
2021/12/25 08:08:24;;;;;;;5.33;2.67;;;1.30;99.90;;;;;;5059711;28;21050;-54
2021/12/25 08:10:51;;;;;;;1.83;1.60;;;1.30;99.90;;;;;;5062660;28;20479;-55
2021/12/25 08:13:18;;;;;;;2.33;1.70;;;1.30;99.90;;;;;;5062902;28;20566;-55
2021/12/25 08:15:46;;;;;;;1.50;1.40;;;1.40;99.90;;;;;;5061053;28;20548;-56
2021/12/25 08:18:14;;;;;;;2.63;1.70;;;1.60;99.90;;;;;;5062921;28;20562;-56
2021/12/25 08:20:41;;;;;;;3.90;2.73;;;1.70;99.90;;;;;;5061749;28;20530;-55
2021/12/25 08:23:08;;;;;;;11.97;9.23;;;1.70;99.90;;;;;;5057381;28;20461;-55
2021/12/25 08:25:35;;;;;;;3.40;3.10;;;1.70;99.90;;;;;;5056214;28;20970;-54
2021/12/25 08:28:02;;;;;;;6.80;5.27;;;1.80;99.90;;;;;;5049458;28;20538;-55
2021/12/25 08:30:29;;;;;;;14.63;11.90;;;1.80;99.90;;;;;;5063136;28;20968;-56
2021/12/25 08:32:59;;;;;;;12.97;9.77;;;1.90;99.90;;;;;;5058137;28;20491;-54
2021/12/25 08:35:28;;;;;;;12.30;10.30;;;1.90;99.90;;;;;;5069229;28;20554;-55
2021/12/25 08:37:55;;;;;;;15.63;11.90;;;1.80;99.90;;;;;;5062283;28;20538;-55
2021/12/25 08:40:24;;;;;;;12.40;11.13;;;1.90;99.90;;;;;;5069741;28;20526;-55
2021/12/25 08:42:56;;;;;;;11.10;9.47;;;1.50;99.90;;;;;;5066490;28;20468;-55
2021/12/25 08:45:44;;;;;;;4.90;4.50;;;1.30;99.90;;;;;;5065389;28;20992;-56
2021/12/25 08:48:15;;;;;;;4.20;3.80;;;1.30;99.90;;;;;;5065360;28;20832;-55
2021/12/25 08:50:47;;;;;;;6.57;5.90;;;1.30;99.90;;;;;;5069014;28;20466;-55
2021/12/25 08:53:14;;;;;;;11.73;9.83;;;1.40;99.90;;;;;;5066597;28;20566;-55
2021/12/25 08:55:41;;;;;;;13.60;8.17;;;1.50;99.90;;;;;;5067121;28;20476;-55
2021/12/25 08:58:08;;;;;;;3.60;3.30;;;1.60;99.90;;;;;;5069047;28;20449;-56
2021/12/25 09:00:35;;;;;;;5.70;4.90;;;1.40;99.90;;;;;;5064742;28;20476;-56
2021/12/25 09:03:03;;;;;;;5.30;4.17;;;1.30;99.90;;;;;;5064913;28;20492;-56
2021/12/25 09:05:32;;;;;;;3.77;3.47;;;1.40;99.90;;;;;;5065091;28;20528;-56
2021/12/25 09:07:59;;;;;;;7.23;6.37;;;1.50;99.90;;;;;;5067432;28;20498;-55
2021/12/25 09:10:28;;;;;;;7.93;7.13;;;1.60;99.90;;;;;;5069880;28;20532;-54
2021/12/25 09:12:55;;;;;;;13.23;10.27;;;1.70;99.90;;;;;;5068218;28;20506;-55
2021/12/25 09:15:23;;;;;;;12.10;8.60;;;1.70;99.90;;;;;;5065809;28;20448;-56
2021/12/25 09:17:50;;;;;;;13.53;11.67;;;1.70;99.90;;;;;;5068325;28;20483;-56
2021/12/25 09:20:19;;;;;;;13.10;11.73;;;1.80;99.90;;;;;;5067395;28;20543;-56
2021/12/25 09:22:48;;;;;;;16.30;14.60;;;1.80;99.90;;;;;;5062974;28;21212;-55
2021/12/25 09:25:15;;;;;;;20.03;16.93;;;1.80;99.90;;;;;;5065286;28;20532;-56
2021/12/25 09:27:42;;;;;;;18.87;16.90;;;1.80;99.90;;;;;;5064815;28;20476;-56
2021/12/25 09:30:11;;;;;;;20.90;16.77;;;1.80;99.90;;;;;;5067694;28;20531;-56
2021/12/25 09:32:38;;;;;;;17.33;14.40;;;1.80;99.90;;;;;;5071719;28;20519;-56
2021/12/25 09:35:05;;;;;;;12.77;10.47;;;1.80;99.90;;;;;;5064589;28;20550;-56
2021/12/25 09:37:32;;;;;;;11.83;10.63;;;1.40;99.90;;;;;;5064515;28;20535;-54
2021/12/25 09:40:01;;;;;;;10.77;9.63;;;1.10;99.90;;;;;;5069961;28;20444;-56
2021/12/25 09:42:28;;;;;;;12.97;10.40;;;1.10;99.90;;;;;;5061851;28;21138;-55
2021/12/25 09:44:55;;;;;;;8.13;6.70;;;1.30;99.90;;;;;;5064293;28;20881;-54
2021/12/25 09:47:23;;;;;;;11.13;10.10;;;1.40;99.90;;;;;;5065932;28;20530;-55
2021/12/25 09:49:50;;;;;;;23.43;17.63;;;1.60;99.90;;;;;;5063318;28;20531;-55
2021/12/25 09:52:17;;;;;;;21.00;17.47;;;1.60;99.90;;;;;;5065730;28;20547;-55
2021/12/25 09:54:44;;;;;;;21.20;18.03;;;1.50;99.90;;;;;;5070267;28;20539;-56
2021/12/25 09:57:14;;;;;;;18.40;15.50;;;1.00;99.90;;;;;;5070396;28;20849;-56
2021/12/25 09:59:41;;;;;;;14.90;11.80;;;0.70;99.90;;;;;;5071127;28;20444;-56
2021/12/25 10:02:13;;;;;;;11.83;10.10;;;0.70;99.90;;;;;;5069766;28;20470;-54
2021/12/25 10:04:42;;;;;;;12.30;10.60;;;0.70;99.90;;;;;;5070153;28;20460;-56
2021/12/25 10:07:22;;;;;;;12.23;9.80;;;0.90;99.90;;;;;;5071265;28;20526;-55
2021/12/25 10:10:07;;;;;;;18.47;16.27;;;1.10;99.90;;;;;;5070215;28;20924;-55
2021/12/25 10:12:41;;;;;;;20.73;18.63;;;1.20;99.90;;;;;;5068052;28;20476;-55
2021/12/25 10:15:12;;;;;;;21.70;19.47;;;1.20;99.90;;;;;;5069790;28;20508;-56
2021/12/25 10:17:45;;;;;;;22.83;19.57;;;1.20;99.90;;;;;;5068735;28;20443;-56
2021/12/25 10:20:15;;;;;;;19.23;16.87;;;1.30;99.90;;;;;;5069448;28;21252;-56
2021/12/25 10:22:57;;;;;;;14.47;12.97;;;1.40;99.90;;;;;;5070982;28;20487;-55
2021/12/25 10:25:28;;;;;;;12.80;10.57;;;1.30;99.90;;;;;;5068967;28;20441;-55
2021/12/25 10:27:59;;;;;;;9.20;8.20;;;1.30;99.90;;;;;;5066726;28;20530;-56
2021/12/25 10:30:26;;;;;;;11.87;10.67;;;1.50;99.90;;;;;;5063692;28;20525;-55
2021/12/25 10:32:53;;;;;;;11.67;10.53;;;1.60;99.90;;;;;;5069777;28;20483;-56
2021/12/25 10:35:23;;;;;;;12.80;11.50;;;1.80;99.90;;;;;;5066992;28;20483;-55
2021/12/25 10:37:51;;;;;;;13.13;10.07;;;2.00;99.90;;;;;;5070020;28;20443;-56
2021/12/25 10:40:26;;;;;;;13.10;11.83;;;2.10;99.90;;;;;;5066516;28;20959;-56
2021/12/25 10:42:54;;;;;;;16.50;14.40;;;2.30;99.90;;;;;;5064327;28;20843;-56
2021/12/25 10:45:25;;;;;;;15.90;14.13;;;2.40;99.90;;;;;;5069846;28;20528;-55
2021/12/25 10:48:08;;;;;;;17.40;10.70;;;2.50;99.90;;;;;;5070715;28;20807;-55
2021/12/25 10:50:38;;;;;;;12.87;11.53;;;2.60;99.90;;;;;;5069441;28;20880;-56
2021/12/25 10:53:26;;;;;;;13.00;11.57;;;2.70;99.90;;;;;;5066078;28;20536;-56
2021/12/25 10:55:54;;;;;;;14.43;12.50;;;2.80;99.90;;;;;;5069857;28;20483;-56
2021/12/25 10:58:23;;;;;;;13.07;10.40;;;2.90;99.90;;;;;;5067928;28;20527;-56
2021/12/25 11:00:55;;;;;;;15.03;11.57;;;3.00;99.90;;;;;;5069845;28;20898;-54
2021/12/25 11:03:31;;;;;;;12.00;10.80;;;3.00;99.90;;;;;;5070826;28;20463;-55
2021/12/25 11:06:04;;;;;;;11.63;10.43;;;3.00;99.90;;;;;;5067408;28;20531;-55
2021/12/25 11:08:31;;;;;;;12.13;10.63;;;3.00;99.90;;;;;;5067964;28;20536;-54
2021/12/25 11:11:01;;;;;;;18.67;13.17;;;3.10;99.90;;;;;;5068252;28;20548;-55
2021/12/25 11:13:30;;;;;;;19.40;14.50;;;3.00;99.90;;;;;;5068546;28;20508;-54
2021/12/25 11:16:05;;;;;;;18.63;15.20;;;3.00;99.90;;;;;;5068211;28;20540;-55
2021/12/25 11:18:49;;;;;;;15.57;13.93;;;3.00;99.90;;;;;;5067171;28;20452;-53
2021/12/25 11:21:17;;;;;;;16.67;13.83;;;3.00;99.90;;;;;;5070230;28;20436;-54
2021/12/25 11:23:46;;;;;;;17.27;13.60;;;3.00;99.90;;;;;;5070018;28;21024;-55
2021/12/25 11:26:13;;;;;;;21.47;16.30;;;2.80;99.90;;;;;;5068572;28;20445;-54
2021/12/25 11:28:42;;;;;;;20.90;14.40;;;2.80;99.90;;;;;;5068846;28;20535;-54
2021/12/25 11:31:10;;;;;;;14.07;11.87;;;2.90;99.90;;;;;;5065623;28;20980;-56
2021/12/25 11:33:39;;;;;;;24.50;18.13;;;2.90;99.90;;;;;;5070380;28;20519;-55
2021/12/25 11:36:06;;;;;;;21.60;16.00;;;2.80;99.90;;;;;;5072159;28;20450;-55
2021/12/25 11:38:33;;;;;;;17.63;12.57;;;2.80;99.90;;;;;;5072195;28;20539;-56
2021/12/25 11:41:07;;;;;;;16.57;14.67;;;2.90;99.90;;;;;;5070487;28;20521;-55
2021/12/25 11:43:37;;;;;;;21.37;18.73;;;3.00;99.90;;;;;;5067244;28;20507;-55
2021/12/25 11:46:06;;;;;;;23.57;19.37;;;2.80;99.90;;;;;;5068969;28;20823;-56
2021/12/25 11:48:37;;;;;;;18.57;16.53;;;2.70;99.90;;;;;;5066631;28;20447;-56
2021/12/25 11:51:06;;;;;;;15.30;12.00;;;3.00;99.90;;;;;;5067649;28;20535;-56
2021/12/25 11:54:03;;;;;;;15.33;13.73;;;2.60;99.90;;;;;;5066689;28;20485;-55
2021/12/25 11:56:36;;;;;;;9.37;8.40;;;2.70;99.90;;;;;;5076854;28;20477;-55
2021/12/25 11:59:12;;;;;;;10.30;9.10;;;2.90;99.90;;;;;;5076020;28;20928;-53
2021/12/25 12:01:44;;;;;;;11.50;9.43;;;2.90;99.90;;;;;;5075348;28;20592;-55
2021/12/25 12:04:17;;;;;;;10.40;8.57;;;3.10;99.90;;;;;;5070264;28;20492;-55
2021/12/25 12:07:02;;;;;;;11.03;8.20;;;3.20;99.90;;;;;;5070672;28;20467;-54
2021/12/25 12:09:32;;;;;;;10.93;9.80;;;3.30;99.90;;;;;;5068867;28;20440;-55
2021/12/25 12:12:21;;;;;;;12.63;11.43;;;3.30;99.90;;;;;;5069987;28;20549;-54
2021/12/25 12:15:07;;;;;;;16.07;12.73;;;3.40;99.90;;;;;;5070443;28;20696;-55
2021/12/25 12:17:36;;;;;;;13.30;11.40;;;3.40;99.90;;;;;;5069359;28;20524;-54
2021/12/25 12:20:06;;;;;;;13.80;12.10;;;3.40;99.90;;;;;;5069159;28;20440;-54
2021/12/25 12:22:44;;;;;;;15.00;10.97;;;3.50;99.90;;;;;;5077451;28;20436;-53
2021/12/25 12:25:20;;;;;;;12.07;10.03;;;3.50;99.90;;;;;;5069762;28;20440;-55
2021/12/25 12:27:52;;;;;;;11.93;10.70;;;3.50;99.90;;;;;;5068291;28;20459;-55
2021/12/25 12:30:46;;;;;;;13.93;11.27;;;3.60;99.90;;;;;;5070769;28;20514;-55
2021/12/25 12:33:47;;;;;;;10.97;9.97;;;3.60;99.90;;;;;;5068609;28;20564;-54
2021/12/25 12:36:27;;;;;;;13.80;11.07;;;3.60;99.90;;;;;;5067915;28;20935;-54
2021/12/25 12:39:13;;;;;;;12.73;10.37;;;3.60;99.90;;;;;;5067765;28;20480;-55
2021/12/25 12:41:51;;;;;;;14.17;11.30;;;3.60;99.90;;;;;;5073650;28;20476;-55
2021/12/25 12:44:28;;;;;;;13.40;11.20;;;3.60;99.90;;;;;;5070700;28;20517;-55
2021/12/25 12:47:05;;;;;;;12.97;11.60;;;3.60;99.90;;;;;;5064218;28;20537;-55
2021/12/25 12:49:53;;;;;;;10.47;9.40;;;3.70;99.90;;;;;;5065670;28;20887;-55
2021/12/25 12:52:31;;;;;;;10.97;9.93;;;3.70;99.90;;;;;;5070132;28;21092;-55
2021/12/25 12:55:01;;;;;;;12.20;10.20;;;3.70;99.90;;;;;;5069749;28;20452;-54
2021/12/25 12:57:30;;;;;;;12.30;11.00;;;3.80;99.90;;;;;;5071783;28;20539;-54
2021/12/25 13:00:00;;;;;;;18.30;14.77;;;3.90;99.90;;;;;;5076358;28;20943;-55
2021/12/25 13:02:29;;;;;;;14.27;12.77;;;3.80;99.90;;;;;;5064273;28;20548;-54
2021/12/25 13:04:59;;;;;;;13.43;12.00;;;3.90;99.90;;;;;;5065557;28;20467;-54
2021/12/25 13:07:29;;;;;;;11.90;10.70;;;4.00;99.90;;;;;;5070859;28;21007;-55
2021/12/25 13:10:01;;;;;;;17.13;13.47;;;4.00;99.90;;;;;;5071508;28;20501;-55
2021/12/25 13:12:42;;;;;;;18.40;15.33;;;4.10;99.90;;;;;;5069208;28;20449;-55
2021/12/25 13:15:14;;;;;;;10.87;9.77;;;4.20;99.90;;;;;;5070741;28;20955;-55
2021/12/25 13:17:51;;;;;;;10.70;9.60;;;4.30;99.90;;;;;;5065887;28;20465;-54
2021/12/25 13:20:18;;;;;;;11.10;9.83;;;4.40;99.90;;;;;;5070623;28;20541;-55
2021/12/25 13:22:58;;;;;;;10.97;10.03;;;4.50;99.90;;;;;;5067668;28;20508;-56
2021/12/25 13:25:26;;;;;;;12.60;9.90;;;4.50;99.90;;;;;;5074152;28;20967;-54
2021/12/25 13:27:58;;;;;;;10.00;9.10;;;4.50;99.90;;;;;;5068290;28;20913;-55
2021/12/25 13:30:26;;;;;;;8.90;7.90;;;4.60;99.90;;;;;;5081175;28;20478;-55
2021/12/25 13:32:53;;;;;;;8.90;8.00;;;4.70;99.90;;;;;;5068136;28;20497;-55
2021/12/25 13:35:23;;;;;;;9.73;8.10;;;4.70;99.90;;;;;;5068822;28;20472;-55
2021/12/25 13:37:59;;;;;;;9.77;8.77;;;4.60;99.90;;;;;;5070824;28;20472;-55
2021/12/25 13:40:26;;;;;;;14.90;9.43;;;4.40;99.90;;;;;;5072662;28;20554;-55
2021/12/25 13:45:21;;;;;;;9.17;8.10;;;4.50;99.90;;;;;;5114034;22;20851;-83
2021/12/25 13:47:48;;;;;;;8.57;7.87;;;4.50;99.90;;;;;;5096686;28;20447;-82
2021/12/25 13:50:16;;;;;;;8.13;7.13;;;4.50;99.90;;;;;;5092989;28;20468;-81
2021/12/25 13:52:50;;;;;;;7.07;6.10;;;4.40;99.90;;;;;;5096972;28;20496;-81
2021/12/25 13:55:21;;;;;;;7.23;6.50;;;4.40;99.90;;;;;;5094899;28;20459;-81
2021/12/25 13:57:50;;;;;;;7.87;7.13;;;4.40;99.90;;;;;;5094870;28;20431;-82
2021/12/25 14:00:20;;;;;;;5.53;5.03;;;4.40;99.90;;;;;;5100867;28;20454;-81
2021/12/25 14:02:49;;;;;;;7.80;7.00;;;4.30;99.90;;;;;;5095401;28;20481;-82